CheckWX is a tool to help pilots better visualize weather data.  It is not intended as a substitute for an official pre-flight weather briefing.

14:19:25 UTC

EBLB METAR
Elsenborn Airport
Bütgenbach, Belgium
Current

54 mins ago

EBLB 221325Z AUTO 10011G23KT 9999 NCD 21/01 Q1007 BLU
Observed
Apr-22 @ 13:25 UTC
Wind
  • 100° at 11 KTS
  • Gusting to 23 KTS
Visibility
10,000+ meters
Flight Rules
VFR
Cloud Levels
  • Clear skies
Temperature
21°C / 70°F
Dewpoint
C / 34°F
Humidity
27%
Altimeter
29.73" Hg
Pressure
1006.92 hPa
Previous

1 hour ago

EBLB 221255Z AUTO 13011KT 9999 NCD 21/00 Q1008 BLU
Observed
Apr-22 @ 12:55 UTC
Wind
  • 130° at 11 KTS
Visibility
10,000+ meters
Flight Rules
VFR
Cloud Levels
  • Clear skies
Temperature
21°C / 70°F
Dewpoint
C / 32°F
Humidity
25%
Altimeter
29.76" Hg
Pressure
1007.92 hPa
Previous

2 hours ago

EBLB 221225Z AUTO 14010KT 9999 NCD 20/M00 Q1008 BLU
Observed
Apr-22 @ 12:25 UTC
Wind
  • 140° at 10 KTS
Visibility
10,000+ meters
Flight Rules
VFR
Cloud Levels
  • Clear skies
Temperature
20°C / 68°F
Dewpoint
C / 32°F
Humidity
26%
Altimeter
29.76" Hg
Pressure
1007.92 hPa